Terminal Aerodrome Forecast
Issued by NWS Charleston, WV

Current Version | Previous Version | Text Only | Print | Product List | Glossary Off
Versions: 1 2 3 4 5 6 7 8 9 10 11 12 13 14 15 16 17 18 19 20 21 22 23 24

000
FTUS41 KRLX 150900 AAA
TAFEKN
TAF AMD
KEKN 150905Z 1509/1606 00000KT 3SM BR BKN004 OVC016
      TEMPO 1509/1512 SCT004 OVC016
     FM151200 00000KT 6SM BR FEW006 OVC016
     FM151500 00000KT P6SM SCT020
     FM151700 00000KT P6SM FEW250=

USA.gov is the U.S. government's official web portal to all federal, state and local government web resources and services.